Terminal Aerodrome Forecast
Issued by NWS Wilmington, NC

Home | Current Version | Previous Version | Text Only | Print | Product List | Glossary On
Versions: 1 2 3 4 5 6 7 8 9 10 11 12 13 14 15 16 17 18 19 20 21
000
FTUS42 KILM 301730
TAFILM
TAF
KILM 301730Z 3018/0118 09012KT P6SM BKN015 OVC025
      TEMPO 3019/3023 BKN025 OVC040
     FM010400 12006KT P6SM SCT004 BKN007 OVC012
     FM011400 16008KT P6SM VCSH SCT007 OVC015=

USA.gov is the U.S. government's official web portal to all federal, state and local government web resources and services.